sensor_id;sensor_type;location;lat;lon;timestamp;P1;durP1;ratioP1;P2;durP2;ratioP2
83018;SDS011;72834;40.104;18.336;2024-03-08T00:01:23;19.02;;;10.48;;
83018;SDS011;72834;40.104;18.336;2024-03-08T00:03:49;17.08;;;9.88;;
83018;SDS011;72834;40.104;18.336;2024-03-08T00:06:17;17.40;;;10.18;;
83018;SDS011;72834;40.104;18.336;2024-03-08T00:08:43;19.67;;;9.85;;
83018;SDS011;72834;40.104;18.336;2024-03-08T00:11:09;18.02;;;9.45;;
83018;SDS011;72834;40.104;18.336;2024-03-08T00:13:35;20.13;;;9.82;;
83018;SDS011;72834;40.104;18.336;2024-03-08T00:16:02;23.63;;;11.00;;
83018;SDS011;72834;40.104;18.336;2024-03-08T00:18:28;18.63;;;10.50;;
83018;SDS011;72834;40.104;18.336;2024-03-08T00:20:55;23.63;;;10.95;;
83018;SDS011;72834;40.104;18.336;2024-03-08T00:23:21;20.92;;;9.52;;
83018;SDS011;72834;40.104;18.336;2024-03-08T00:25:48;16.17;;;9.13;;
83018;SDS011;72834;40.104;18.336;2024-03-08T00:28:15;18.17;;;9.23;;
83018;SDS011;72834;40.104;18.336;2024-03-08T00:30:42;21.40;;;9.05;;
83018;SDS011;72834;40.104;18.336;2024-03-08T00:33:08;19.10;;;8.63;;
83018;SDS011;72834;40.104;18.336;2024-03-08T00:35:34;15.05;;;8.60;;
83018;SDS011;72834;40.104;18.336;2024-03-08T00:38:01;10.65;;;6.43;;
83018;SDS011;72834;40.104;18.336;2024-03-08T00:40:27;14.68;;;7.18;;
83018;SDS011;72834;40.104;18.336;2024-03-08T00:42:54;14.25;;;7.45;;
83018;SDS011;72834;40.104;18.336;2024-03-08T00:45:20;13.10;;;6.82;;
83018;SDS011;72834;40.104;18.336;2024-03-08T00:47:49;14.52;;;7.53;;
83018;SDS011;72834;40.104;18.336;2024-03-08T00:50:15;17.20;;;7.45;;
83018;SDS011;72834;40.104;18.336;2024-03-08T00:52:41;10.57;;;6.30;;
83018;SDS011;72834;40.104;18.336;2024-03-08T00:55:07;14.63;;;6.60;;
83018;SDS011;72834;40.104;18.336;2024-03-08T00:57:36;15.80;;;7.28;;
83018;SDS011;72834;40.104;18.336;2024-03-08T01:00:05;13.95;;;6.68;;
83018;SDS011;72834;40.104;18.336;2024-03-08T01:02:38;18.13;;;6.80;;
83018;SDS011;72834;40.104;18.336;2024-03-08T01:05:05;11.45;;;6.13;;
83018;SDS011;72834;40.104;18.336;2024-03-08T01:07:36;10.25;;;5.75;;
83018;SDS011;72834;40.104;18.336;2024-03-08T01:10:03;16.38;;;6.70;;
83018;SDS011;72834;40.104;18.336;2024-03-08T01:12:29;14.73;;;6.60;;
83018;SDS011;72834;40.104;18.336;2024-03-08T01:14:55;13.65;;;5.88;;
83018;SDS011;72834;40.104;18.336;2024-03-08T01:17:23;12.75;;;5.93;;
83018;SDS011;72834;40.104;18.336;2024-03-08T01:19:50;12.70;;;7.00;;
83018;SDS011;72834;40.104;18.336;2024-03-08T01:22:16;14.32;;;6.75;;
83018;SDS011;72834;40.104;18.336;2024-03-08T01:24:42;11.30;;;6.78;;
83018;SDS011;72834;40.104;18.336;2024-03-08T01:27:08;12.88;;;6.28;;
83018;SDS011;72834;40.104;18.336;2024-03-08T01:29:34;12.65;;;5.60;;
83018;SDS011;72834;40.104;18.336;2024-03-08T01:32:01;14.43;;;6.78;;
83018;SDS011;72834;40.104;18.336;2024-03-08T01:34:27;14.50;;;6.60;;
83018;SDS011;72834;40.104;18.336;2024-03-08T01:36:54;11.73;;;5.80;;
83018;SDS011;72834;40.104;18.336;2024-03-08T01:39:23;13.70;;;5.50;;
83018;SDS011;72834;40.104;18.336;2024-03-08T01:41:49;14.98;;;6.97;;
83018;SDS011;72834;40.104;18.336;2024-03-08T01:44:15;14.52;;;7.60;;
83018;SDS011;72834;40.104;18.336;2024-03-08T01:46:49;12.55;;;7.20;;
83018;SDS011;72834;40.104;18.336;2024-03-08T01:49:18;15.60;;;6.53;;
83018;SDS011;72834;40.104;18.336;2024-03-08T01:51:46;14.60;;;6.80;;
83018;SDS011;72834;40.104;18.336;2024-03-08T01:54:15;15.30;;;7.45;;
83018;SDS011;72834;40.104;18.336;2024-03-08T01:56:44;15.43;;;8.10;;
83018;SDS011;72834;40.104;18.336;2024-03-08T01:59:10;11.80;;;6.53;;
83018;SDS011;72834;40.104;18.336;2024-03-08T02:01:36;11.98;;;7.07;;
83018;SDS011;72834;40.104;18.336;2024-03-08T02:04:03;14.23;;;7.47;;
83018;SDS011;72834;40.104;18.336;2024-03-08T02:06:32;14.52;;;6.85;;
83018;SDS011;72834;40.104;18.336;2024-03-08T02:08:59;15.80;;;6.60;;
83018;SDS011;72834;40.104;18.336;2024-03-08T02:11:25;13.93;;;6.82;;
83018;SDS011;72834;40.104;18.336;2024-03-08T02:13:52;11.38;;;5.88;;
83018;SDS011;72834;40.104;18.336;2024-03-08T02:16:21;12.98;;;7.18;;
83018;SDS011;72834;40.104;18.336;2024-03-08T02:18:48;13.18;;;7.43;;
83018;SDS011;72834;40.104;18.336;2024-03-08T02:21:15;14.55;;;6.95;;
83018;SDS011;72834;40.104;18.336;2024-03-08T02:23:46;15.40;;;7.82;;
83018;SDS011;72834;40.104;18.336;2024-03-08T02:26:12;13.13;;;7.40;;
83018;SDS011;72834;40.104;18.336;2024-03-08T02:28:39;13.73;;;6.40;;
83018;SDS011;72834;40.104;18.336;2024-03-08T02:31:07;11.10;;;6.53;;
83018;SDS011;72834;40.104;18.336;2024-03-08T02:33:33;15.25;;;6.55;;
83018;SDS011;72834;40.104;18.336;2024-03-08T02:36:00;16.77;;;8.43;;
83018;SDS011;72834;40.104;18.336;2024-03-08T02:38:26;13.20;;;7.95;;
83018;SDS011;72834;40.104;18.336;2024-03-08T02:40:54;14.95;;;7.78;;
83018;SDS011;72834;40.104;18.336;2024-03-08T02:43:21;11.73;;;6.82;;
83018;SDS011;72834;40.104;18.336;2024-03-08T02:45:47;13.68;;;6.95;;
83018;SDS011;72834;40.104;18.336;2024-03-08T02:48:14;11.20;;;6.57;;
83018;SDS011;72834;40.104;18.336;2024-03-08T02:50:44;12.40;;;7.10;;
83018;SDS011;72834;40.104;18.336;2024-03-08T02:53:11;11.07;;;6.40;;
83018;SDS011;72834;40.104;18.336;2024-03-08T02:55:38;17.83;;;7.28;;
83018;SDS011;72834;40.104;18.336;2024-03-08T02:58:07;19.38;;;7.82;;
83018;SDS011;72834;40.104;18.336;2024-03-08T03:00:37;17.70;;;9.85;;
83018;SDS011;72834;40.104;18.336;2024-03-08T03:03:04;21.35;;;9.30;;
83018;SDS011;72834;40.104;18.336;2024-03-08T03:05:32;15.88;;;7.57;;
83018;SDS011;72834;40.104;18.336;2024-03-08T03:07:59;19.55;;;8.65;;
83018;SDS011;72834;40.104;18.336;2024-03-08T03:10:25;17.20;;;8.27;;
83018;SDS011;72834;40.104;18.336;2024-03-08T03:12:52;20.67;;;9.98;;
83018;SDS011;72834;40.104;18.336;2024-03-08T03:15:18;21.63;;;9.90;;
83018;SDS011;72834;40.104;18.336;2024-03-08T03:17:47;18.55;;;9.88;;
83018;SDS011;72834;40.104;18.336;2024-03-08T03:20:17;19.35;;;9.82;;
83018;SDS011;72834;40.104;18.336;2024-03-08T03:22:58;16.27;;;8.35;;
83018;SDS011;72834;40.104;18.336;2024-03-08T03:25:27;17.77;;;8.57;;
83018;SDS011;72834;40.104;18.336;2024-03-08T03:28:03;16.70;;;9.60;;
83018;SDS011;72834;40.104;18.336;2024-03-08T03:30:30;17.83;;;9.13;;
83018;SDS011;72834;40.104;18.336;2024-03-08T03:32:59;18.63;;;9.25;;
83018;SDS011;72834;40.104;18.336;2024-03-08T03:35:26;18.98;;;9.13;;
83018;SDS011;72834;40.104;18.336;2024-03-08T03:37:54;21.85;;;9.90;;
83018;SDS011;72834;40.104;18.336;2024-03-08T03:40:33;21.02;;;9.48;;
83018;SDS011;72834;40.104;18.336;2024-03-08T03:43:00;23.13;;;10.45;;
83018;SDS011;72834;40.104;18.336;2024-03-08T03:45:28;23.50;;;9.60;;
83018;SDS011;72834;40.104;18.336;2024-03-08T03:47:55;21.95;;;9.40;;
83018;SDS011;72834;40.104;18.336;2024-03-08T03:50:22;20.88;;;9.88;;
83018;SDS011;72834;40.104;18.336;2024-03-08T03:52:49;20.10;;;9.43;;
83018;SDS011;72834;40.104;18.336;2024-03-08T03:55:15;19.83;;;9.40;;
83018;SDS011;72834;40.104;18.336;2024-03-08T03:57:41;18.38;;;9.15;;
83018;SDS011;72834;40.104;18.336;2024-03-08T04:00:08;19.05;;;8.52;;
83018;SDS011;72834;40.104;18.336;2024-03-08T04:02:41;17.23;;;7.70;;
83018;SDS011;72834;40.104;18.336;2024-03-08T04:05:08;16.65;;;8.25;;
83018;SDS011;72834;40.104;18.336;2024-03-08T04:07:35;16.60;;;7.97;;
83018;SDS011;72834;40.104;18.336;2024-03-08T04:10:03;24.52;;;9.13;;
83018;SDS011;72834;40.104;18.336;2024-03-08T04:12:32;16.80;;;8.98;;
83018;SDS011;72834;40.104;18.336;2024-03-08T04:15:01;19.77;;;8.93;;
83018;SDS011;72834;40.104;18.336;2024-03-08T04:17:30;15.40;;;7.93;;
83018;SDS011;72834;40.104;18.336;2024-03-08T04:19:56;17.20;;;7.60;;
83018;SDS011;72834;40.104;18.336;2024-03-08T04:22:22;18.77;;;8.38;;
83018;SDS011;72834;40.104;18.336;2024-03-08T04:24:49;14.30;;;7.72;;
83018;SDS011;72834;40.104;18.336;2024-03-08T04:27:15;19.15;;;8.52;;
83018;SDS011;72834;40.104;18.336;2024-03-08T04:29:41;16.58;;;8.65;;
83018;SDS011;72834;40.104;18.336;2024-03-08T04:32:08;20.20;;;7.70;;
83018;SDS011;72834;40.104;18.336;2024-03-08T04:34:35;16.20;;;7.18;;
83018;SDS011;72834;40.104;18.336;2024-03-08T04:37:02;21.23;;;8.98;;
83018;SDS011;72834;40.104;18.336;2024-03-08T04:39:30;12.68;;;6.72;;
83018;SDS011;72834;40.104;18.336;2024-03-08T04:41:57;18.65;;;8.85;;
83018;SDS011;72834;40.104;18.336;2024-03-08T04:44:30;17.80;;;8.00;;
83018;SDS011;72834;40.104;18.336;2024-03-08T04:46:57;21.60;;;8.02;;
83018;SDS011;72834;40.104;18.336;2024-03-08T04:49:23;13.52;;;7.28;;
83018;SDS011;72834;40.104;18.336;2024-03-08T04:51:49;16.92;;;7.72;;
83018;SDS011;72834;40.104;18.336;2024-03-08T04:54:16;14.82;;;8.23;;
83018;SDS011;72834;40.104;18.336;2024-03-08T04:56:42;19.30;;;9.82;;
83018;SDS011;72834;40.104;18.336;2024-03-08T04:59:08;15.23;;;8.98;;
83018;SDS011;72834;40.104;18.336;2024-03-08T05:01:34;17.10;;;9.90;;
83018;SDS011;72834;40.104;18.336;2024-03-08T05:04:03;17.95;;;8.90;;
83018;SDS011;72834;40.104;18.336;2024-03-08T05:06:31;16.70;;;8.18;;
83018;SDS011;72834;40.104;18.336;2024-03-08T05:08:57;16.52;;;8.20;;
83018;SDS011;72834;40.104;18.336;2024-03-08T05:11:23;14.45;;;7.35;;
83018;SDS011;72834;40.104;18.336;2024-03-08T05:13:49;14.27;;;6.72;;
83018;SDS011;72834;40.104;18.336;2024-03-08T05:16:16;13.45;;;7.25;;
83018;SDS011;72834;40.104;18.336;2024-03-08T05:18:42;15.23;;;7.07;;
83018;SDS011;72834;40.104;18.336;2024-03-08T05:21:08;14.82;;;6.70;;
83018;SDS011;72834;40.104;18.336;2024-03-08T05:23:34;19.08;;;8.48;;
83018;SDS011;72834;40.104;18.336;2024-03-08T05:26:01;14.32;;;6.82;;
83018;SDS011;72834;40.104;18.336;2024-03-08T05:28:27;21.05;;;7.15;;
83018;SDS011;72834;40.104;18.336;2024-03-08T05:30:53;12.73;;;7.45;;
83018;SDS011;72834;40.104;18.336;2024-03-08T05:33:22;19.45;;;10.20;;
83018;SDS011;72834;40.104;18.336;2024-03-08T05:35:49;17.85;;;7.70;;
83018;SDS011;72834;40.104;18.336;2024-03-08T05:38:15;75.63;;;35.30;;
83018;SDS011;72834;40.104;18.336;2024-03-08T05:40:41;20.70;;;12.90;;
83018;SDS011;72834;40.104;18.336;2024-03-08T05:43:08;16.38;;;8.35;;
83018;SDS011;72834;40.104;18.336;2024-03-08T05:45:36;17.88;;;7.75;;
83018;SDS011;72834;40.104;18.336;2024-03-08T05:48:02;14.93;;;7.30;;
83018;SDS011;72834;40.104;18.336;2024-03-08T05:50:29;19.92;;;8.70;;
83018;SDS011;72834;40.104;18.336;2024-03-08T05:52:55;16.88;;;9.20;;
83018;SDS011;72834;40.104;18.336;2024-03-08T05:55:22;20.30;;;8.98;;
83018;SDS011;72834;40.104;18.336;2024-03-08T05:57:50;19.02;;;9.18;;
83018;SDS011;72834;40.104;18.336;2024-03-08T06:00:16;17.95;;;8.45;;
83018;SDS011;72834;40.104;18.336;2024-03-08T06:02:44;21.08;;;8.70;;
83018;SDS011;72834;40.104;18.336;2024-03-08T06:05:10;16.52;;;8.13;;
83018;SDS011;72834;40.104;18.336;2024-03-08T06:07:37;15.77;;;8.13;;
83018;SDS011;72834;40.104;18.336;2024-03-08T06:10:07;19.73;;;8.13;;
83018;SDS011;72834;40.104;18.336;2024-03-08T06:12:36;20.63;;;9.73;;
83018;SDS011;72834;40.104;18.336;2024-03-08T06:15:08;19.98;;;12.15;;
83018;SDS011;72834;40.104;18.336;2024-03-08T06:17:38;23.20;;;11.68;;
83018;SDS011;72834;40.104;18.336;2024-03-08T06:20:05;23.05;;;11.38;;
83018;SDS011;72834;40.104;18.336;2024-03-08T06:22:37;19.73;;;8.63;;
83018;SDS011;72834;40.104;18.336;2024-03-08T06:25:06;19.17;;;9.35;;
83018;SDS011;72834;40.104;18.336;2024-03-08T06:27:42;16.85;;;9.30;;
83018;SDS011;72834;40.104;18.336;2024-03-08T06:30:09;23.08;;;12.18;;
83018;SDS011;72834;40.104;18.336;2024-03-08T06:32:36;29.30;;;17.67;;
83018;SDS011;72834;40.104;18.336;2024-03-08T06:35:05;32.42;;;17.42;;
83018;SDS011;72834;40.104;18.336;2024-03-08T06:37:32;35.25;;;20.73;;
83018;SDS011;72834;40.104;18.336;2024-03-08T06:39:59;30.23;;;17.30;;
83018;SDS011;72834;40.104;18.336;2024-03-08T06:42:26;35.35;;;14.75;;
83018;SDS011;72834;40.104;18.336;2024-03-08T06:44:54;24.15;;;12.27;;
83018;SDS011;72834;40.104;18.336;2024-03-08T06:47:25;24.13;;;12.27;;
83018;SDS011;72834;40.104;18.336;2024-03-08T06:49:51;27.50;;;12.80;;
83018;SDS011;72834;40.104;18.336;2024-03-08T06:52:18;26.63;;;13.65;;
83018;SDS011;72834;40.104;18.336;2024-03-08T06:54:44;25.85;;;11.95;;
83018;SDS011;72834;40.104;18.336;2024-03-08T06:57:10;22.65;;;11.10;;
83018;SDS011;72834;40.104;18.336;2024-03-08T06:59:36;29.02;;;10.57;;
83018;SDS011;72834;40.104;18.336;2024-03-08T07:02:02;23.70;;;10.80;;
83018;SDS011;72834;40.104;18.336;2024-03-08T07:04:29;25.77;;;11.82;;
83018;SDS011;72834;40.104;18.336;2024-03-08T07:06:57;17.27;;;9.27;;
83018;SDS011;72834;40.104;18.336;2024-03-08T07:09:24;15.40;;;7.72;;
83018;SDS011;72834;40.104;18.336;2024-03-08T07:11:51;17.20;;;8.13;;
83018;SDS011;72834;40.104;18.336;2024-03-08T07:14:23;21.17;;;11.65;;
83018;SDS011;72834;40.104;18.336;2024-03-08T07:16:50;15.18;;;7.28;;
83018;SDS011;72834;40.104;18.336;2024-03-08T07:19:17;12.70;;;4.97;;
83018;SDS011;72834;40.104;18.336;2024-03-08T07:21:43;12.80;;;5.05;;
83018;SDS011;72834;40.104;18.336;2024-03-08T07:24:10;10.57;;;4.93;;
83018;SDS011;72834;40.104;18.336;2024-03-08T07:26:45;9.73;;;4.38;;
83018;SDS011;72834;40.104;18.336;2024-03-08T07:29:15;8.77;;;4.32;;
83018;SDS011;72834;40.104;18.336;2024-03-08T07:31:42;10.10;;;4.88;;
83018;SDS011;72834;40.104;18.336;2024-03-08T07:34:21;8.32;;;4.13;;
83018;SDS011;72834;40.104;18.336;2024-03-08T07:36:47;7.28;;;3.83;;
83018;SDS011;72834;40.104;18.336;2024-03-08T07:39:16;8.57;;;3.75;;
83018;SDS011;72834;40.104;18.336;2024-03-08T07:41:42;6.15;;;2.80;;
83018;SDS011;72834;40.104;18.336;2024-03-08T07:44:09;9.00;;;2.85;;
83018;SDS011;72834;40.104;18.336;2024-03-08T07:46:35;7.15;;;3.88;;
83018;SDS011;72834;40.104;18.336;2024-03-08T07:49:03;5.70;;;2.45;;
83018;SDS011;72834;40.104;18.336;2024-03-08T07:51:29;7.55;;;2.10;;
83018;SDS011;72834;40.104;18.336;2024-03-08T07:53:56;7.50;;;2.10;;
83018;SDS011;72834;40.104;18.336;2024-03-08T07:56:22;6.53;;;2.28;;
83018;SDS011;72834;40.104;18.336;2024-03-08T07:58:49;7.75;;;3.03;;
83018;SDS011;72834;40.104;18.336;2024-03-08T08:01:16;7.15;;;3.33;;
83018;SDS011;72834;40.104;18.336;2024-03-08T08:03:43;4.65;;;1.77;;
83018;SDS011;72834;40.104;18.336;2024-03-08T08:06:10;5.82;;;1.65;;
83018;SDS011;72834;40.104;18.336;2024-03-08T08:08:44;6.70;;;2.45;;
83018;SDS011;72834;40.104;18.336;2024-03-08T08:11:10;4.78;;;1.83;;
83018;SDS011;72834;40.104;18.336;2024-03-08T08:13:36;5.45;;;1.90;;
83018;SDS011;72834;40.104;18.336;2024-03-08T08:16:03;2.83;;;1.10;;
83018;SDS011;72834;40.104;18.336;2024-03-08T08:18:31;4.25;;;1.70;;
83018;SDS011;72834;40.104;18.336;2024-03-08T08:20:58;4.22;;;1.92;;
83018;SDS011;72834;40.104;18.336;2024-03-08T08:23:27;4.40;;;2.35;;
83018;SDS011;72834;40.104;18.336;2024-03-08T08:25:55;7.15;;;2.03;;
83018;SDS011;72834;40.104;18.336;2024-03-08T08:28:21;6.43;;;2.75;;
83018;SDS011;72834;40.104;18.336;2024-03-08T08:30:47;4.85;;;2.38;;
83018;SDS011;72834;40.104;18.336;2024-03-08T08:33:16;4.88;;;2.15;;
83018;SDS011;72834;40.104;18.336;2024-03-08T08:35:42;7.03;;;3.78;;
83018;SDS011;72834;40.104;18.336;2024-03-08T08:38:08;6.22;;;2.83;;
83018;SDS011;72834;40.104;18.336;2024-03-08T08:40:35;7.07;;;3.38;;
83018;SDS011;72834;40.104;18.336;2024-03-08T08:43:03;6.22;;;1.45;;
83018;SDS011;72834;40.104;18.336;2024-03-08T08:45:30;3.28;;;1.05;;
83018;SDS011;72834;40.104;18.336;2024-03-08T08:47:57;2.95;;;0.80;;
83018;SDS011;72834;40.104;18.336;2024-03-08T08:50:25;4.13;;;1.38;;
83018;SDS011;72834;40.104;18.336;2024-03-08T08:52:52;17.63;;;9.85;;
83018;SDS011;72834;40.104;18.336;2024-03-08T08:55:18;8.50;;;4.70;;
83018;SDS011;72834;40.104;18.336;2024-03-08T08:57:51;7.15;;;2.10;;
83018;SDS011;72834;40.104;18.336;2024-03-08T09:00:19;8.82;;;4.05;;
83018;SDS011;72834;40.104;18.336;2024-03-08T09:02:46;6.45;;;2.72;;
83018;SDS011;72834;40.104;18.336;2024-03-08T09:05:14;9.25;;;2.92;;
83018;SDS011;72834;40.104;18.336;2024-03-08T09:07:45;3.13;;;1.55;;
83018;SDS011;72834;40.104;18.336;2024-03-08T09:10:11;2.30;;;1.20;;
83018;SDS011;72834;40.104;18.336;2024-03-08T09:12:38;2.92;;;0.98;;
83018;SDS011;72834;40.104;18.336;2024-03-08T09:15:05;3.47;;;1.08;;
83018;SDS011;72834;40.104;18.336;2024-03-08T09:17:34;0.70;;;0.60;;
83018;SDS011;72834;40.104;18.336;2024-03-08T09:20:00;2.78;;;1.20;;
83018;SDS011;72834;40.104;18.336;2024-03-08T09:22:28;4.07;;;1.10;;
83018;SDS011;72834;40.104;18.336;2024-03-08T09:24:55;10.52;;;4.93;;
83018;SDS011;72834;40.104;18.336;2024-03-08T09:27:22;8.57;;;3.75;;
83018;SDS011;72834;40.104;18.336;2024-03-08T09:29:49;13.45;;;5.35;;
83018;SDS011;72834;40.104;18.336;2024-03-08T09:32:16;14.00;;;6.22;;
83018;SDS011;72834;40.104;18.336;2024-03-08T09:34:42;6.40;;;2.40;;
83018;SDS011;72834;40.104;18.336;2024-03-08T09:37:09;3.10;;;1.38;;
83018;SDS011;72834;40.104;18.336;2024-03-08T09:39:35;7.50;;;3.50;;
83018;SDS011;72834;40.104;18.336;2024-03-08T09:42:01;12.75;;;7.22;;
83018;SDS011;72834;40.104;18.336;2024-03-08T09:44:28;28.42;;;16.35;;
83018;SDS011;72834;40.104;18.336;2024-03-08T09:46:57;15.85;;;7.88;;
83018;SDS011;72834;40.104;18.336;2024-03-08T09:49:25;13.88;;;6.63;;
83018;SDS011;72834;40.104;18.336;2024-03-08T09:51:51;25.48;;;13.93;;
83018;SDS011;72834;40.104;18.336;2024-03-08T09:54:18;8.75;;;4.93;;
83018;SDS011;72834;40.104;18.336;2024-03-08T09:56:46;29.55;;;18.65;;
83018;SDS011;72834;40.104;18.336;2024-03-08T09:59:15;9.07;;;5.07;;
83018;SDS011;72834;40.104;18.336;2024-03-08T10:01:53;57.15;;;25.17;;
83018;SDS011;72834;40.104;18.336;2024-03-08T10:04:23;92.25;;;43.90;;
83018;SDS011;72834;40.104;18.336;2024-03-08T10:06:49;93.72;;;43.00;;
83018;SDS011;72834;40.104;18.336;2024-03-08T10:09:15;60.47;;;28.10;;
83018;SDS011;72834;40.104;18.336;2024-03-08T10:11:42;51.72;;;24.50;;
83018;SDS011;72834;40.104;18.336;2024-03-08T10:14:08;23.23;;;12.77;;
83018;SDS011;72834;40.104;18.336;2024-03-08T10:16:38;4.82;;;2.25;;
83018;SDS011;72834;40.104;18.336;2024-03-08T10:19:05;4.15;;;1.38;;
83018;SDS011;72834;40.104;18.336;2024-03-08T10:21:31;3.80;;;1.83;;
83018;SDS011;72834;40.104;18.336;2024-03-08T10:23:59;7.50;;;4.00;;
83018;SDS011;72834;40.104;18.336;2024-03-08T10:26:25;6.57;;;3.40;;
83018;SDS011;72834;40.104;18.336;2024-03-08T10:28:52;6.63;;;3.92;;
83018;SDS011;72834;40.104;18.336;2024-03-08T10:31:19;8.50;;;5.95;;
83018;SDS011;72834;40.104;18.336;2024-03-08T10:33:46;3.72;;;2.15;;
83018;SDS011;72834;40.104;18.336;2024-03-08T10:36:13;11.00;;;7.50;;
83018;SDS011;72834;40.104;18.336;2024-03-08T10:38:41;12.98;;;5.55;;
83018;SDS011;72834;40.104;18.336;2024-03-08T10:41:12;5.05;;;3.10;;
83018;SDS011;72834;40.104;18.336;2024-03-08T10:44:05;1.98;;;1.10;;
83018;SDS011;72834;40.104;18.336;2024-03-08T10:49:06;2.90;;;1.30;;
83018;SDS011;72834;40.104;18.336;2024-03-08T10:51:38;9.93;;;5.65;;
83018;SDS011;72834;40.104;18.336;2024-03-08T10:54:07;3.03;;;1.75;;
83018;SDS011;72834;40.104;18.336;2024-03-08T10:56:36;2.00;;;0.98;;
83018;SDS011;72834;40.104;18.336;2024-03-08T10:59:02;5.70;;;1.60;;
83018;SDS011;72834;40.104;18.336;2024-03-08T11:01:30;1.90;;;0.98;;
83018;SDS011;72834;40.104;18.336;2024-03-08T11:03:56;2.22;;;0.85;;
83018;SDS011;72834;40.104;18.336;2024-03-08T11:06:29;2.72;;;1.20;;
83018;SDS011;72834;40.104;18.336;2024-03-08T11:09:01;3.95;;;1.08;;
83018;SDS011;72834;40.104;18.336;2024-03-08T11:11:28;7.47;;;4.80;;
83018;SDS011;72834;40.104;18.336;2024-03-08T11:14:00;4.75;;;1.90;;
83018;SDS011;72834;40.104;18.336;2024-03-08T11:18:54;4.50;;;1.45;;
83018;SDS011;72834;40.104;18.336;2024-03-08T11:21:30;5.25;;;1.75;;
83018;SDS011;72834;40.104;18.336;2024-03-08T11:24:02;4.60;;;2.25;;
83018;SDS011;72834;40.104;18.336;2024-03-08T11:26:33;4.38;;;1.92;;
83018;SDS011;72834;40.104;18.336;2024-03-08T11:34:40;6.22;;;2.25;;
83018;SDS011;72834;40.104;18.336;2024-03-08T11:37:12;21.05;;;15.38;;
83018;SDS011;72834;40.104;18.336;2024-03-08T11:39:41;57.97;;;32.67;;
83018;SDS011;72834;40.104;18.336;2024-03-08T11:42:16;36.45;;;19.80;;
83018;SDS011;72834;40.104;18.336;2024-03-08T11:44:43;25.27;;;15.55;;
83018;SDS011;72834;40.104;18.336;2024-03-08T11:47:10;60.15;;;31.90;;
83018;SDS011;72834;40.104;18.336;2024-03-08T11:49:40;46.10;;;25.08;;
83018;SDS011;72834;40.104;18.336;2024-03-08T11:52:13;13.13;;;8.18;;
83018;SDS011;72834;40.104;18.336;2024-03-08T11:54:40;6.57;;;2.58;;
83018;SDS011;72834;40.104;18.336;2024-03-08T11:57:09;12.50;;;7.53;;
83018;SDS011;72834;40.104;18.336;2024-03-08T11:59:37;12.02;;;6.32;;
83018;SDS011;72834;40.104;18.336;2024-03-08T12:02:04;6.47;;;2.65;;
83018;SDS011;72834;40.104;18.336;2024-03-08T12:04:32;7.40;;;3.60;;
83018;SDS011;72834;40.104;18.336;2024-03-08T12:07:02;5.75;;;2.92;;
83018;SDS011;72834;40.104;18.336;2024-03-08T12:09:35;11.65;;;4.18;;
83018;SDS011;72834;40.104;18.336;2024-03-08T12:12:02;2.55;;;1.27;;
83018;SDS011;72834;40.104;18.336;2024-03-08T12:14:33;8.53;;;3.50;;
83018;SDS011;72834;40.104;18.336;2024-03-08T12:16:59;12.25;;;5.93;;
83018;SDS011;72834;40.104;18.336;2024-03-08T12:19:27;5.50;;;3.17;;
83018;SDS011;72834;40.104;18.336;2024-03-08T12:24:32;3.03;;;1.35;;
83018;SDS011;72834;40.104;18.336;2024-03-08T12:26:58;4.18;;;1.73;;
83018;SDS011;72834;40.104;18.336;2024-03-08T12:29:25;13.23;;;9.32;;
83018;SDS011;72834;40.104;18.336;2024-03-08T12:31:54;7.78;;;4.68;;
83018;SDS011;72834;40.104;18.336;2024-03-08T12:34:23;4.93;;;2.90;;
83018;SDS011;72834;40.104;18.336;2024-03-08T12:36:50;8.90;;;5.30;;
83018;SDS011;72834;40.104;18.336;2024-03-08T12:39:18;13.52;;;8.70;;
83018;SDS011;72834;40.104;18.336;2024-03-08T12:41:52;4.60;;;2.47;;
83018;SDS011;72834;40.104;18.336;2024-03-08T12:44:20;5.10;;;3.13;;
83018;SDS011;72834;40.104;18.336;2024-03-08T12:46:50;7.55;;;3.72;;
83018;SDS011;72834;40.104;18.336;2024-03-08T12:49:17;4.72;;;2.20;;
83018;SDS011;72834;40.104;18.336;2024-03-08T12:51:43;4.50;;;2.05;;
83018;SDS011;72834;40.104;18.336;2024-03-08T12:54:10;5.65;;;3.35;;
83018;SDS011;72834;40.104;18.336;2024-03-08T12:56:37;8.27;;;5.55;;
83018;SDS011;72834;40.104;18.336;2024-03-08T12:59:04;5.47;;;2.05;;
83018;SDS011;72834;40.104;18.336;2024-03-08T13:01:31;4.25;;;1.63;;
83018;SDS011;72834;40.104;18.336;2024-03-08T13:03:58;4.63;;;1.65;;
83018;SDS011;72834;40.104;18.336;2024-03-08T13:06:26;11.50;;;7.35;;
83018;SDS011;72834;40.104;18.336;2024-03-08T13:08:53;10.38;;;5.93;;
83018;SDS011;72834;40.104;18.336;2024-03-08T13:11:20;5.30;;;2.47;;
83018;SDS011;72834;40.104;18.336;2024-03-08T13:13:48;3.78;;;2.00;;
83018;SDS011;72834;40.104;18.336;2024-03-08T13:16:15;7.28;;;2.53;;
83018;SDS011;72834;40.104;18.336;2024-03-08T13:18:43;3.40;;;1.70;;
83018;SDS011;72834;40.104;18.336;2024-03-08T13:21:10;3.53;;;2.20;;
83018;SDS011;72834;40.104;18.336;2024-03-08T13:23:40;8.60;;;3.00;;
83018;SDS011;72834;40.104;18.336;2024-03-08T13:26:12;6.45;;;2.97;;
83018;SDS011;72834;40.104;18.336;2024-03-08T13:28:41;4.80;;;2.30;;
83018;SDS011;72834;40.104;18.336;2024-03-08T13:31:22;7.20;;;3.45;;
83018;SDS011;72834;40.104;18.336;2024-03-08T13:33:48;5.35;;;1.50;;
83018;SDS011;72834;40.104;18.336;2024-03-08T13:36:16;2.83;;;1.17;;
83018;SDS011;72834;40.104;18.336;2024-03-08T13:38:47;3.67;;;1.67;;
83018;SDS011;72834;40.104;18.336;2024-03-08T13:41:14;7.05;;;2.85;;
83018;SDS011;72834;40.104;18.336;2024-03-08T13:43:42;3.65;;;1.83;;
83018;SDS011;72834;40.104;18.336;2024-03-08T13:46:11;5.07;;;2.60;;
83018;SDS011;72834;40.104;18.336;2024-03-08T13:48:37;7.50;;;3.38;;
83018;SDS011;72834;40.104;18.336;2024-03-08T13:51:04;19.27;;;8.63;;
83018;SDS011;72834;40.104;18.336;2024-03-08T13:53:36;10.32;;;5.32;;
83018;SDS011;72834;40.104;18.336;2024-03-08T13:56:02;18.95;;;11.40;;
83018;SDS011;72834;40.104;18.336;2024-03-08T13:58:30;22.92;;;13.93;;
83018;SDS011;72834;40.104;18.336;2024-03-08T14:00:57;8.48;;;4.68;;
83018;SDS011;72834;40.104;18.336;2024-03-08T14:03:23;8.98;;;3.92;;
83018;SDS011;72834;40.104;18.336;2024-03-08T14:05:49;5.88;;;3.03;;
83018;SDS011;72834;40.104;18.336;2024-03-08T14:08:16;63.30;;;41.58;;
83018;SDS011;72834;40.104;18.336;2024-03-08T14:10:43;15.20;;;10.98;;
83018;SDS011;72834;40.104;18.336;2024-03-08T14:13:12;10.07;;;6.53;;
83018;SDS011;72834;40.104;18.336;2024-03-08T14:15:41;29.52;;;20.63;;
83018;SDS011;72834;40.104;18.336;2024-03-08T14:18:08;13.13;;;7.80;;
83018;SDS011;72834;40.104;18.336;2024-03-08T14:20:34;14.90;;;9.02;;
83018;SDS011;72834;40.104;18.336;2024-03-08T14:23:00;10.18;;;5.50;;
83018;SDS011;72834;40.104;18.336;2024-03-08T14:25:26;5.78;;;3.22;;
83018;SDS011;72834;40.104;18.336;2024-03-08T14:27:55;9.00;;;4.43;;
83018;SDS011;72834;40.104;18.336;2024-03-08T14:30:29;15.85;;;9.65;;
83018;SDS011;72834;40.104;18.336;2024-03-08T14:33:07;7.03;;;2.95;;
83018;SDS011;72834;40.104;18.336;2024-03-08T14:35:36;11.93;;;6.40;;
83018;SDS011;72834;40.104;18.336;2024-03-08T14:38:03;5.35;;;2.38;;
83018;SDS011;72834;40.104;18.336;2024-03-08T14:40:33;8.27;;;4.65;;